Pagrindinis puslapis
METAR-TAF:

METAR-TAF

Oro uostai :

Adana, Turkija

platuma: 36-59N, ilguma: 035-18E, Aukštis: 20 m

Dabartinis oras

Ataskaita buvo paskelbta 49 minutes, ne 11:50 UTC
Vėjas 4 kt iš Šiaurės Rytų, svyruoja nuo Šiaurės ir Rytų
Temperatūra 18°C
Drėgmė 52%
Slėgis 1018 hPa
Matomumas 10 km arba daugiau
Išsisklaidę debesys ne aukštis 3500 ft

METAR: LTAF 151150Z 05004KT 360V100 9999 SCT035 18/08 Q1018 NOSIG RMK RWY23 07005KT 030V110

Laikas: 15:39 (12:39 UTC)


TAF: trūkstamas

Orai ataskaitas ir orų prognozės (METAR, TAF).

turimą stotys yra geltonos ir raudonos taškus žemėlapyje.

Perkelti pele per norėdami pamatyti stoties vardą.

Tada spustelėkite, norėdami matyti oro stebėjimo ir prognozės.

Norėdami pakeisti žemėlapį: spustelėkite ant žalios mygtukų su juodo kryžiaus žemyn,; žalią mygtuką su brūkšneliu, jei norite nutolinti; arba žalių rodyklių gretimoms žemėlapius.


METAR-TAF: